Tiempo atmosférico en la estación meteorológica de Roquetas de Mar, Almería (7 m.)



Fecha
DESCASC
Temp. máxima en grados centígrados (hora)
DESCASC
Temp. mínima en grados centígrados (hora)
DESCASC
Temp. media en grados centígrados
DESCASC
Racha de viento máxima en m/sg (hora)
DESCASC
Velocidad máxima media en intervalos de 10 minutos(hora)
DESCASC
Precipitaciones diarias en mm
DESCASC
Precipitaciones de 00:00 a 06:00 en mm
DESCASC
Precipitaciones de 06:00 a 12:00 en mm
DESCASC
Precipitaciones de 12:00 a 18:00 en mm
DESCASC
Precipitaciones de 18:00 a 24:00 en mm
DESCASC
22-11-2020 19.8 (12:20) 10.5 (08:10) 15.1 8.89 (01:20) 6.11 (01:00) 0 0 0 0 0
21-11-2020 21.2 (14:10) 14.7 (23:59) 18 14.17 (15:30) 8.33 (16:00) 0 0 0 0 0
20-11-2020 20.6 (14:40) 11.4 (04:30) 16 6.39 (23:59) 3.89 (23:59) 0 0 0 0 0
19-11-2020 21.1 (13:10) 11.7 (00:00) 16.4 11.39 (16:20) 5.83 (16:20) 0 0 0 0 0
18-11-2020 21.9 (13:50) 13.2 (00:00) 17.5 6.11 (14:00) 3.89 (14:00) 0 0 0 0 0
17-11-2020 22 (14:00) 13.9 (00:00) 17.9 6.67 (13:40) 4.17 (13:40) 0 0 0 0 0
16-11-2020 22.2 (13:20) 14.9 (00:00) 18.6 17.78 (13:00) 5.56 (13:00) 0 0 0 0 0
15-11-2020 21.2 (15:20) 13.8 (00:00) 17.5 6.67 (17:30) 4.72 (17:30) 0 0 0 0 0
14-11-2020 21.2 (13:50) 16.5 (00:00) 18.9 7.5 (18:20) 4.72 (18:30) 0 0 0 0 0
13-11-2020 22 (15:50) 12.7 (00:00) 17.3 6.94 (00:10) 3.61 (00:10) 0 0 0 0 0
12-11-2020 21.7 (12:30) 10.8 (00:00) 16.3 12.5 (21:40) 7.5 (21:40) 0 0 0 0 0
11-11-2020 22.7 (13:20) 13.8 (00:00) 18.3 11.67 (14:20) 7.5 (10:20) 0 0 0 0 0
10-11-2020 21.7 (13:30) 12.3 (00:00) 17 9.72 (22:30) 5.56 (22:40) 0 0 0 0 0
09-11-2020 20.7 (16:30) 11.3 (00:00) 16 5.83 (15:50) 3.06 (15:10) 0 0 0 0 0
08-11-2020 21 (15:40) 10.5 (00:00) 15.8 6.11 (00:20) 3.89 (01:30) 0 0 0 0 0
07-11-2020 21.6 (02:50) 14.5 (00:00) 18.1 24.44 (02:30) 15 (02:40) 0 0 0 0 0
06-11-2020 26.9 (12:00) 20.3 (00:00) 23.6 15.56 (14:10) 10 (15:20) 0 0 0 0 0
05-11-2020 24.8 (16:40) 18.5 (00:00) 21.6 19.17 (07:30) 10.83 (00:30) 0 0 0 0 0
04-11-2020 22.6 (14:20) 10.9 (00:00) 16.8 21.11 (10:00) 9.44 (23:00) 0 0 0 0 0
03-11-2020 19.3 (16:20) 11.3 (00:00) 15.3 5.28 (14:50) 3.33 (12:20) 0.2 0 0 0.2 0
02-11-2020 18.6 (16:10) 11.3 (00:00) 15 5.56 (15:10) 3.61 (15:50) -- 0 -- 0 0
01-11-2020 19.4 (17:10) 10.5 (00:00) 14.9 13.61 (08:50) 3.61 (14:30) 0 0 0 0 0
31-10-2020 22.6 (13:00) 12.4 (00:00) 17.5 5.28 (17:30) 3.33 (05:50) 0 0 0 0 0
30-10-2020 -- (--) -- (--) -- -- (--) -- (--) -- 0 -- 0 0
29-10-2020 21.3 (15:00) 9.1 (00:00) 15.2 6.39 (17:40) 4.17 (22:50) 0 0 0 0 0
28-10-2020 19.8 (15:00) 7.8 (00:00) 13.8 5.28 (10:30) 3.61 (16:20) 0 0 0 0 0
27-10-2020 20.3 (14:30) 7.7 (00:00) 14 8.61 (18:00) 5.83 (17:20) 0 0 0 0 0

Gráficas

Temp. máximas Temp. mínimas Temp. medias Precipitaciones Rachas de viento máximas Velocidades máximas media en intervalos de 10 minutos

Datos horarios

Fecha y hora oficial Temperatura (ºC) Velocidad del viento (km/h) Dirección del viento Racha (km/h) Dirección de racha Precipitación (mm) Presión (hPa) Tendencia (hPa) Humedad (%)
2020-11-25 23:00:00 16.2 22 Este 41 Este 0 1012.5 -0.8 82
2020-11-25 22:00:00 15.1 17 Este 26 Este 0 1012.7 -0.4 85
2020-11-25 21:00:00 14.9 12 Nordeste 16 Nordeste 0 1012.9 -0.3 83
2020-11-25 20:00:00 15.2 9 Nordeste 20 Este 0 1013.3 -0.2 80
2020-11-25 19:00:00 16.5 12 Este 19 Sudeste 0 1013.1 -1.1 78
2020-11-25 18:00:00 18.1 10 Este 15 Sudeste 0 1013.2 -1.3 72
2020-11-25 17:00:00 18.7 6 Este 16 Sudeste 0 1013.5 -2.3 69
2020-11-25 16:00:00 18.9 9 Sudeste 15 Sudeste 0 1014.2 -2.9 70
2020-11-25 15:00:00 18.6 11 Sudeste 17 Sudeste 0 1014.5 -3.6 71
2020-11-25 14:00:00 18.6 8 Sudeste 14 Sudeste 0 1015.8 -- 69
2020-11-25 13:00:00 17.6 7 Sudeste 15 Este 0 1017.1 -- 71
2020-11-25 12:00:00 17 9 Este 19 Sudeste 0 1018.1 -- 77
2020-11-25 11:00:00 15.1 6 Este 13 Sudeste 0 1018.1 -- 87
2020-11-25 10:00:00 13 6 Nordeste 17 Nordeste 0 1018 -- 88
2020-11-25 09:00:00 11.3 6 Nordeste 19 Nordeste 0 1017.9 -- 87
2020-11-25 08:00:00 11.4 6 Nordeste 17 Nordeste 0 1017.9 -- 85
2020-11-25 07:00:00 12.9 4 Norte 30 Oeste 0 1017.8 -- 83
2020-11-25 06:00:00 15.7 17 Oeste 36 Oeste 0 1017.9 -- 82
2020-11-25 05:00:00 14.8 19 Oeste 30 Oeste 0 1018.2 -- 85
2020-11-25 04:00:00 12.1 14 Oeste 20 Noroeste 0 1018.6 -- 84
2020-11-25 03:00:00 13.2 3 Noroeste 5 Noroeste 0 1019.2 -- 84
2020-11-25 02:00:00 13.6 2 Nordeste 6 Norte 0 1019.9 -- 84
2020-11-25 01:00:00 13.4 4 Norte 5 Norte 0 1020.4 -- 84
2020-11-25 00:00:00 13.4 4 Nordeste 6 Norte 0 1020.8 -- 84
2020-11-24 23:00:00 12.9 4 Norte 9 Norte 0 1021 -- 83
2020-11-24 22:00:00 11.7 6 Norte 8 Norte 0 1021.1 -- 81
2020-11-24 21:00:00 12 5 Noroeste 7 Noroeste 0 1021 -- 76
2020-11-24 20:00:00 13.7 6 Noroeste 12 Oeste 0 1021.1 -- 69
2020-11-24 19:00:00 16.1 6 Oeste 14 Sudoeste 0 1020.8 -- 66
2020-11-24 18:00:00 18 7 Oeste 14 Sudoeste 0 1021 -- 61
2020-11-24 17:00:00 18.3 9 Sudoeste 16 Sudoeste 0 1021.1 -- 60
2020-11-24 16:00:00 18.9 9 Sudoeste 15 Sudoeste 0 1021.6 -- 58
2020-11-24 15:00:00 18.9 10 Sudoeste 18 Sudoeste 0 1022.3 -- 57
2020-11-24 14:00:00 18.5 9 Sudoeste 15 Sudoeste 0 1023.2 -- 58
2020-11-24 13:00:00 18.3 7 Sur 12 Sur 0 1024.2 -- 59
2020-11-24 12:00:00 18.5 3 Sudeste 16 Norte 0 1025.1 -- 57
2020-11-24 11:00:00 16.6 8 Norte 15 Norte 0 1025.4 -- 61
2020-11-24 10:00:00 12.5 9 Norte 14 Norte 0 1025.1 -- 79
2020-11-24 09:00:00 9.4 10 Norte 17 Noroeste 0 1025.1 -- 83
2020-11-24 08:00:00 8.9 12 Norte 23 Nordeste 0 1024.9 -- 84
2020-11-24 07:00:00 9.1 12 Norte 18 Norte 0 1024.7 -- 86
2020-11-24 06:00:00 9.1 12 Norte 17 Norte 0 1024.8 -- 87
2020-11-24 05:00:00 8.9 11 Norte 22 Nordeste 0 1025.2 -- 87
2020-11-24 04:00:00 8.6 11 Norte 21 Nordeste 0 1025.8 -- 87
2020-11-24 03:00:00 8.3 10 Norte 12 Norte 0 1026 -- 87
2020-11-24 02:00:00 8.8 9 Norte 10 Norte 0 1026.4 -- 86
2020-11-24 01:00:00 9.4 9 Nordeste 11 Nordeste 0 1026.7 -- 85
2020-11-24 00:00:00 10.1 9 Nordeste 14 Nordeste 0 1027 -- 84
2020-11-23 23:00:00 10.6 9 Nordeste 13 Nordeste 0 1027.1 -- 82
2020-11-23 22:00:00 11.4 10 Nordeste 13 Nordeste 0 1027 -- 80
2020-11-23 21:00:00 12.1 9 Norte 11 Nordeste 0 1027.1 -- 73
2020-11-23 20:00:00 13.9 5 Nordeste 18 Este 0 1027 -- 67
2020-11-23 19:00:00 15.9 11 Este 18 Este 0 1026.6 -- 66
2020-11-23 18:00:00 17.3 10 Sudeste 19 Sudeste 0 1026.6 -- 60
2020-11-23 17:00:00 18.1 12 Sudeste 22 Sudeste 0 1026.4 -- 58
2020-11-23 16:00:00 18.8 10 Sudeste 21 Sudeste 0 1026.7 -- 55
2020-11-23 15:00:00 19 13 Este 23 Este 0 1027.3 -- 53
2020-11-23 14:00:00 19.1 12 Este 24 Este 0 1027.8 -- 51
2020-11-23 13:00:00 18.6 13 Este 23 Este 0 1028.6 -- 53
2020-11-23 12:00:00 18.4 14 Este 23 Este 0 1029 -- 55
2020-11-23 11:00:00 16.9 13 Nordeste 19 Nordeste 0 1028.8 -- 60
2020-11-23 10:00:00 12.8 7 Nordeste 13 Norte 0 1028.4 -- 83
2020-11-23 09:00:00 9.2 10 Norte 15 Norte 0 1027.8 -- 84
2020-11-23 08:00:00 9 10 Norte 23 Nordeste 0 1027.5 -- 84
2020-11-23 07:00:00 9.6 9 Norte 22 Nordeste 0 1027.3 -- 84
2020-11-23 06:00:00 10.1 12 Norte 17 Norte 0 1027.2 -- 84
2020-11-23 05:00:00 10.1 12 Norte 19 Nordeste 0 1027.4 -- 84
2020-11-23 04:00:00 10 11 Norte 20 Nordeste 0 1027.3 -- 84
2020-11-23 03:00:00 10 10 Norte 14 Norte 0 1027.3 -- 83
2020-11-23 02:00:00 10.1 9 Norte 20 Nordeste 0 1027.5 -- 82
2020-11-23 01:00:00 10.5 9 Norte 13 Nordeste 0 1027.6 -- 80
2020-11-23 00:00:00 11 9 Nordeste 12 Nordeste 0 1027.6 -- 74
2020-11-22 23:00:00 12.2 8 Nordeste 10 Nordeste 0 1027.7 -- 68
2020-11-22 22:00:00 14.6 5 Nordeste 11 Este 0 1027.6 -- 64
2020-11-22 21:00:00 15.9 7 Este 12 Sudeste 0 1027 -- 60
2020-11-22 20:00:00 16.4 6 Sudeste 17 Sudeste 0 1027 -- 58
2020-11-22 19:00:00 16.2 9 Sudeste 18 Sudeste 0 1026.6 -- 61
2020-11-22 18:00:00 17.4 10 Sudeste 27 Sudeste 0 1026.8 -- 57
2020-11-22 17:00:00 18 12 Sudeste 22 Sudeste 0 1026.6 -- 55
2020-11-22 16:00:00 18.7 14 Sudeste 24 Sudeste 0 1026.6 -- 57
2020-11-22 15:00:00 19.2 12 Sudeste 22 Sudeste 0 1027 -- 54
2020-11-22 14:00:00 19 10 Sudeste 17 Sudeste 0 1027.6 -- 49
2020-11-22 13:00:00 19.5 10 Sudeste 18 Sudeste 0 1028.2 -- 48
2020-11-22 12:00:00 19.1 7 Nordeste 18 Nordeste 0 1028.6 -- 45
2020-11-22 11:00:00 17.3 9 Norte 16 Nordeste 0 1028.8 -- 55
2020-11-22 10:00:00 14.3 9 Norte 15 Norte 0 1028.4 -- 62
2020-11-22 09:00:00 11.3 10 Norte 17 Norte 0 1028.2 -- 71
2020-11-22 08:00:00 10.6 12 Norte 15 Norte 0 1028 -- 75
2020-11-22 07:00:00 10.8 11 Norte 15 Norte 0 1027.7 -- 74
2020-11-22 06:00:00 12.6 12 Nordeste 18 Nordeste 0 1027.6 -- 71
2020-11-22 05:00:00 12.7 12 Nordeste 17 Nordeste 0 1027.5 -- 72
2020-11-22 04:00:00 13 9 Nordeste 23 Nordeste 0 1027.6 -- 71
2020-11-22 03:00:00 14.3 9 Nordeste 27 Este 0 1027.7 -- 68
2020-11-22 02:00:00 14.5 10 Nordeste 32 Este 0 1028 -- 67
2020-11-22 01:00:00 15.1 22 Este 31 Este 0 1028 -- 67
2020-11-22 00:00:00 14.7 17 Nordeste 36 Este 0 1028.2 -- 69
2020-11-21 23:00:00 15.9 18 Este 32 Este 0 1028.2 -- 68
2020-11-21 22:00:00 16.2 19 Este 35 Este 0 1028.2 -- 70
2020-11-21 21:00:00 16.9 19 Este 35 Este 0 1028.4 -- 68
2020-11-21 20:00:00 17.2 20 Este 37 Este 0 1027.3 -- 67
2020-11-21 19:00:00 17.4 21 Este 36 Sudeste 0 1026.8 -- 66
2020-11-21 18:00:00 18.1 22 Sudeste 37 Sudeste 0 1026.4 -- 64
2020-11-21 17:00:00 19.1 21 Sudeste 41 Sudeste 0 1026.2 -- 63
2020-11-21 16:00:00 19.5 30 Sudeste 51 Sudeste 0 1025.9 -- 64
2020-11-21 15:00:00 20.1 22 Sudeste 40 Sudeste 0 1026.1 -- 62
2020-11-21 14:00:00 21.1 21 Este 33 Este 0 1026.6 -- 51
2020-11-21 13:00:00 20 19 Este 72 Este 0 1027.3 -- 55
2020-11-21 12:00:00 19.8 22 Este 41 Este 0 1027.7 -- 54
2020-11-21 11:00:00 18.8 22 Este 36 Este 0 1027.3 -- 55
2020-11-21 10:00:00 17.8 19 Este 33 Este 0 1027 -- 60
2020-11-21 09:00:00 15.9 19 Este 31 Este 0 1026.4 -- 70
2020-11-21 08:00:00 16.1 21 Este 35 Este 0 1026 -- 73
2020-11-21 07:00:00 16.4 22 Este 35 Este 0 1025.4 -- 74
2020-11-21 06:00:00 16.5 20 Este 35 Este 0 1025.4 -- 75
2020-11-21 05:00:00 17.3 21 Este 36 Este 0 1025.9 -- 75
2020-11-21 04:00:00 17.4 19 Este 32 Este 0 1024.8 -- 74
2020-11-21 03:00:00 17.6 20 Este 31 Este 0 1025 -- 76
2020-11-21 02:00:00 17.7 15 Este 29 Este 0 1025.4 -- 78
2020-11-21 01:00:00 17.8 18 Este 35 Este 0 1025.9 -- 79
2020-11-21 00:00:00 17.3 14 Este 23 Este 0 1025.7 -- 82
2020-11-20 23:00:00 18 5 Este 16 Este 0 1025.6 -- 82
2020-11-20 22:00:00 17.9 8 Este 18 Este 0 1025.6 -- 81
2020-11-20 21:00:00 17.9 7 Este 12 Este 0 1025.6 -- 81
2020-11-20 20:00:00 18 4 Este 6 Este 0 1025.3 -- 80
2020-11-20 19:00:00 18.4 5 Este 11 Sudeste 0 1025.1 -- 78
2020-11-20 18:00:00 19 5 Sudeste -- -- -- 1024.9 -- 74
2020-11-20 17:00:00 19.9 6 Sudeste 13 Sudeste 0 1024.9 -- 68
2020-11-20 16:00:00 20.3 6 Sudeste 14 Sur 0 1024.9 -- 66
2020-11-20 15:00:00 20.4 9 Sur 16 Sur 0 1025.3 -- 66
2020-11-20 14:00:00 20.2 10 Sur 16 Sudeste 0 1025.9 -- 68
2020-11-20 13:00:00 19.8 9 Sudeste 15 Sudeste 0 1026.8 -- 66
2020-11-20 12:00:00 19.5 8 Sur 12 Sur 0 1027.1 -- 65
2020-11-20 11:00:00 17.6 4 Noroeste 9 Norte 0 1026.9 -- 84
2020-11-20 10:00:00 14.7 4 Noroeste 10 Norte 0 1027.3 -- 90
2020-11-20 09:00:00 12.5 8 Norte 63 Noroeste 0 1027.1 -- 89
2020-11-20 08:00:00 12.3 8 Norte 10 Norte 0 1027.1 -- 89
2020-11-20 07:00:00 13.5 8 Norte 13 Norte 0 1027.1 -- 89
2020-11-20 06:00:00 12.5 6 Norte 12 Norte 0 1027.2 -- 89
2020-11-20 05:00:00 11.7 9 Norte 12 Norte 0 1027.6 -- 88
2020-11-20 04:00:00 11.7 7 Norte 9 Norte 0 1027.8 -- 88
2020-11-20 03:00:00 11.7 8 Norte 11 Norte 0 1028.3 -- 87
2020-11-20 02:00:00 12.2 8 Norte 13 Norte 0 1028.9 -- 86
2020-11-20 01:00:00 12.6 6 Norte 11 Norte 0 1029.3 -- 85
2020-11-20 00:00:00 12.5 6 Norte 14 Nordeste 0 1029.6 -- 83
2020-11-19 23:00:00 13.1 8 Nordeste 11 Nordeste 0 1029.2 -- 82
2020-11-19 22:00:00 13.9 6 Norte 12 Norte 0 1029.1 -- 80
2020-11-19 21:00:00 15.2 7 Norte 10 Este 0 1028.6 -- 77
2020-11-19 20:00:00 17.4 6 Este 17 Sudeste 0 1028.8 -- 73
2020-11-19 19:00:00 18.7 11 Sudeste 24 Sudeste 0 1028.4 -- 69
2020-11-19 18:00:00 19.6 15 Sudeste 34 Sudeste 0 1028.2 -- 66
2020-11-19 17:00:00 20.4 18 Sudeste 41 Sudeste 0 1027.9 -- 65
2020-11-19 16:00:00 20.7 20 Sudeste 33 Sudeste 0 1028.1 -- 66
2020-11-19 15:00:00 20.8 17 Sudeste 34 Sudeste 0 1028.2 -- 70
2020-11-19 14:00:00 20.6 19 Sudeste 36 Sudeste 0 1028.5 -- 70
2020-11-19 13:00:00 21 15 Este 30 Este 0 1029.3 -- 65
2020-11-19 12:00:00 20.5 18 Este 30 Este 0 1029.6 -- 68
2020-11-19 11:00:00 17.4 17 Este 27 Este 0 1029.5 -- 88
2020-11-19 10:00:00 15.2 7 Nordeste 12 Norte 0 1029.1 -- 92
2020-11-19 09:00:00 12.6 10 Nordeste 12 Nordeste 0 1028.3 -- 92
2020-11-19 08:00:00 12.1 10 Norte 12 Norte 0 1027.7 -- 92
2020-11-19 07:00:00 12.4 8 Norte 10 Norte 0 1027.1 -- 91
2020-11-19 06:00:00 11.9 8 Nordeste 10 Nordeste 0 1026.9 -- 91
2020-11-19 05:00:00 12.2 8 Norte 13 Este 0 1026.9 -- 90
2020-11-19 04:00:00 13.8 7 Nordeste 16 Este 0 1026.7 -- 90
2020-11-19 03:00:00 13 4 Nordeste 9 Nordeste 0 1026.8 -- 89
2020-11-19 02:00:00 13.6 6 Norte 11 Norte 0 1027.1 -- 89
2020-11-19 01:00:00 13.2 8 Nordeste 10 Nordeste 0 1027.4 -- 88
2020-11-19 00:00:00 13.9 10 Nordeste 11 Nordeste 0 1027.2 -- 87
2020-11-18 23:00:00 13.9 6 Nordeste 8 Nordeste 0 1027.3 -- 85
2020-11-18 22:00:00 14.4 7 Nordeste 8 Norte 0 1026.9 -- 83
2020-11-18 21:00:00 14.9 5 Norte 7 Norte 0 1027.2 -- 80
2020-11-18 20:00:00 15.9 2 Norte 4 Norte 0 1026.5 -- 76
2020-11-18 19:00:00 18.3 3 Sur 5 Sudoeste 0 1026.2 -- 74
2020-11-18 18:00:00 19.9 3 Sudoeste 13 Sur 0 1026.1 -- 70
2020-11-18 17:00:00 20.1 10 Sudeste 19 Sudeste 0 1026.2 -- 69
2020-11-18 16:00:00 21.1 9 Sudeste 16 Sudeste 0 1026.2 -- 63
2020-11-18 15:00:00 21.2 9 Sudeste 21 Sudeste 0 1026.4 -- 63
2020-11-18 14:00:00 21.2 14 Sudeste 22 Sudeste 0 1027.1 -- 65
2020-11-18 13:00:00 20 10 Nordeste 17 Este 0 1028.1 -- 71
2020-11-18 12:00:00 19.3 10 Este 14 Nordeste 0 1028.5 -- 76
2020-11-18 11:00:00 18.5 9 Este 14 Este 0 1028.5 -- 83
2020-11-18 10:00:00 17.7 8 Nordeste 13 Nordeste 0 1028.1 -- 87
2020-11-18 09:00:00 17.3 5 Este 10 Nordeste 0 1027.4 -- 88
2020-11-18 08:00:00 17.2 5 Nordeste 12 Nordeste 0 1026.9 -- 88
2020-11-18 07:00:00 17.4 9 Este 14 Este 0 1026.8 -- 89
2020-11-18 06:00:00 17.7 5 Sudeste 9 Sudeste 0 1026.6 -- 90
2020-11-18 05:00:00 17.6 0 Calma 9 Nordeste 0 1026.6 -- 90
2020-11-18 04:00:00 17.6 6 Este 13 Sudeste 0 1026.8 -- 90
2020-11-18 03:00:00 17.7 5 Este 15 Sudeste 0 1026.8 -- 90
2020-11-18 02:00:00 17.9 8 Sudeste 20 Sudeste 0 1027.1 -- 90
2020-11-18 01:00:00 17.7 10 Sudeste 17 Sudeste 0 1027.3 -- 90
2020-11-18 00:00:00 17.5 8 Sudeste 12 Sudeste 0 1027 -- 89
2020-11-17 23:00:00 14.5 2 Noroeste 5 Nordeste 0 1027.1 -- 87
2020-11-17 22:00:00 15.8 3 Oeste 10 Noroeste 0 1026.5 -- 86
2020-11-17 21:00:00 16.9 7 Noroeste 11 Noroeste 0 1026.4 -- 85
2020-11-17 20:00:00 17.6 6 Noroeste 10 Noroeste 0 1025.9 -- 82
2020-11-17 19:00:00 18.6 6 Noroeste 9 Noroeste 0 1025.7 -- 79
2020-11-17 18:00:00 20.3 0 Calma 12 Sudeste 0 1025.7 -- 79
2020-11-17 17:00:00 20.9 7 Sudeste 15 Sudeste 0 1025.6 -- 76
2020-11-17 16:00:00 21.6 10 Sudeste 23 Sudeste 0 1025.6 -- 74
2020-11-17 15:00:00 21.6 12 Sudeste 20 Sudeste 0 1025.7 -- 72
2020-11-17 14:00:00 21.9 12 Este 24 Este 0 1026.2 -- 70
2020-11-17 13:00:00 21.8 9 Sudeste 18 Este 0 1026.8 -- 72
2020-11-17 12:00:00 21.2 8 Sudeste 20 Este 0 1027.1 -- 67
2020-11-17 11:00:00 19.4 13 Este 21 Este 0 1026.5 -- 79
2020-11-17 10:00:00 17 4 Nordeste 11 Norte 0 1025.7 -- 91
2020-11-17 09:00:00 14 7 Norte 14 Nordeste 0 1025 -- 91
2020-11-17 08:00:00 14.9 9 Nordeste 20 Este 0 1024.5 -- 91
2020-11-17 07:00:00 14.8 11 Este 17 Este 0 1024.3 -- 91
2020-11-17 06:00:00 15.2 9 Nordeste 16 Nordeste 0 1023.8 -- 91
2020-11-17 05:00:00 15 10 Nordeste 14 Este 0 1023.7 -- 91
2020-11-17 04:00:00 15 10 Nordeste 16 Nordeste 0 1023.7 -- 91
2020-11-17 03:00:00 15.2 10 Nordeste 17 Este 0 1023.6 -- 91
2020-11-17 02:00:00 15.9 12 Este 16 Este 0 1024 -- 91
2020-11-17 01:00:00 16.8 9 Este 18 Este 0 1024.1 -- 90
2020-11-17 00:00:00 15.7 8 Este 13 Este 0 1024.1 -- 90
2020-11-16 23:00:00 16 8 Nordeste 14 Nordeste 0 1023.7 -- 89
2020-11-16 22:00:00 15.2 8 Norte 11 Nordeste 0 1023.1 -- 87
2020-11-16 21:00:00 16.6 6 Este 12 Este 0 1022.3 -- 85
2020-11-16 20:00:00 16.9 6 Este 8 Este 0 1021.9 -- 83
2020-11-16 19:00:00 18.4 4 Este 8 Sur 0 1021.3 -- 81
2020-11-16 18:00:00 20 6 Sur 10 Oeste 0 1021.1 -- 79
2020-11-16 17:00:00 20.8 8 Sudoeste 18 Sudoeste 0 1020.7 -- 75
2020-11-16 16:00:00 21.3 12 Sudoeste 23 Sudoeste 0 1020.3 -- 73
2020-11-16 15:00:00 22 12 Oeste 23 Oeste 0 1020.8 -- 69
2020-11-16 14:00:00 21.6 12 Oeste 28 Oeste 0 1021.4 -- 72
2020-11-16 13:00:00 21.9 20 Oeste 64 Noroeste 0 1022 -- 70
2020-11-16 12:00:00 19.9 4 Sur 18 Noroeste 0 1022.2 -- 90
2020-11-16 11:00:00 18.5 5 Norte 10 Norte 0 1021.6 -- 92
2020-11-16 10:00:00 17.6 5 Nordeste 12 Norte 0 1021.7 -- 93
2020-11-16 09:00:00 15.8 6 Nordeste 14 Nordeste 0 1021.1 -- 92
2020-11-16 08:00:00 17.5 6 Oeste 15 Sudoeste 0 1020.9 -- 93
2020-11-16 07:00:00 17.3 7 Oeste 20 Sudoeste 0 1021 -- 92
2020-11-16 06:00:00 17.8 11 Sudoeste 18 Sudoeste 0 1021.3 -- 92
2020-11-16 05:00:00 16.9 4 Oeste 15 Noroeste 0 1021.1 -- 92
2020-11-16 04:00:00 16.6 7 Norte 28 Oeste 0 1021.6 -- 92
2020-11-16 03:00:00 17.1 16 Oeste 28 Oeste 0 1021.9 -- 92
2020-11-16 02:00:00 16.9 15 Oeste 25 Oeste 0 1022.5 -- 91
2020-11-16 01:00:00 16.2 4 Noroeste 13 Noroeste 0 1023.3 -- 91
2020-11-16 00:00:00 17 6 Oeste 10 Oeste 0 1023.1 -- 90
2020-11-15 23:00:00 17.4 8 Oeste 15 Oeste 0 1023.2 -- 90
2020-11-15 22:00:00 17.4 8 Oeste 13 Oeste 0 1023.1 -- 89
2020-11-15 21:00:00 17.7 9 Oeste 18 Oeste 0 1023 -- 88
2020-11-15 20:00:00 18.4 9 Oeste 19 Sudoeste 0 1022.5 -- 86
2020-11-15 19:00:00 18.3 11 Oeste 22 Oeste 0 1022.1 -- 83
2020-11-15 18:00:00 19.2 14 Oeste 24 Oeste 0 1021.9 -- 81
2020-11-15 17:00:00 20.3 15 Oeste 23 Oeste 0 1021.9 -- 75
2020-11-15 16:00:00 21.1 11 Oeste 21 Sudoeste 0 1021.7 -- 73
2020-11-15 15:00:00 20.9 13 Oeste 21 Oeste 0 1021.8 -- 73
2020-11-15 14:00:00 20.8 11 Oeste 21 Sudoeste 0 1022.3 -- 74
2020-11-15 13:00:00 20 9 Sudoeste 16 Sudoeste 0 1022.9 -- 75
2020-11-15 12:00:00 19 8 Sudoeste 13 Oeste 0 1023 -- 85
2020-11-15 11:00:00 18.6 6 Sudoeste 10 Sudoeste 0 1023 -- 89
2020-11-15 10:00:00 16.9 5 Nordeste 9 Noroeste 0 1022.9 -- 91
2020-11-15 09:00:00 14 4 Noroeste 9 Nordeste 0 1022.5 -- 90
2020-11-15 08:00:00 14.7 7 Nordeste 10 Nordeste 0 1021.8 -- 89
2020-11-15 07:00:00 15.3 6 Norte 10 Norte 0 1021.7 -- 89
2020-11-15 06:00:00 15.3 5 Norte 10 Noroeste 0 1021.4 -- 88
2020-11-15 05:00:00 17.5 6 Oeste 18 Oeste 0 1021.2 -- 88
2020-11-15 04:00:00 18.2 13 Oeste 22 Sudoeste 0 1021.7 -- 88
2020-11-15 03:00:00 18.3 12 Sudoeste 20 Sudoeste 0 1021.6 -- 88
2020-11-15 02:00:00 18.1 9 Sudoeste 20 Sudoeste 0 1021.9 -- 88
2020-11-15 01:00:00 18.2 12 Sudoeste 19 Sudoeste 0 1022 -- 87
2020-11-15 00:00:00 18.3 9 Oeste 18 Oeste 0 1022.2 -- 87
2020-11-14 23:00:00 18.3 10 Oeste 17 Oeste 0 1022.4 -- 87
2020-11-14 22:00:00 18.2 9 Oeste 20 Sudoeste 0 1022 -- 86
2020-11-14 21:00:00 18.3 10 Oeste 20 Sudoeste 0 1021.6 -- 86
2020-11-14 20:00:00 18.4 12 Oeste 23 Oeste 0 1021 -- 86
2020-11-14 19:00:00 18.8 14 Oeste 27 Oeste 0 1020.8 -- 84
2020-11-14 18:00:00 19.2 11 Oeste 24 Sudoeste 0 1020.5 -- 81
2020-11-14 17:00:00 20.5 10 Oeste 21 Sudoeste 0 1020.6 -- 77
2020-11-14 16:00:00 20.5 11 Sudoeste 17 Oeste 0 1020.6 -- 77
2020-11-14 15:00:00 20.2 11 Sudoeste 15 Sudoeste 0 1020.8 -- 76
2020-11-14 14:00:00 21.1 8 Sur 14 Sudeste 0 1021.2 -- 69
2020-11-14 13:00:00 20.3 7 Sur 13 Sudeste 0 1021.8 -- 75
2020-11-14 12:00:00 19.7 5 Sur 10 Sur 0 1022.2 -- 80
2020-11-14 11:00:00 18.8 3 Nordeste 9 Nordeste 0 1022 -- 86
2020-11-14 10:00:00 18 3 Norte 5 Norte 0 1021.8 -- 88
2020-11-14 09:00:00 16.9 4 Norte 6 Norte 0 1021.2 -- 87
2020-11-14 08:00:00 17.2 4 Este 10 Nordeste 0 1020.7 -- 87
2020-11-14 07:00:00 17.2 3 Norte 12 Este 0 1020.3 -- 86
2020-11-14 06:00:00 17 8 Este 12 Este 0 1019.9 -- 86
2020-11-14 05:00:00 16.7 8 Este 11 Este 0 1019.7 -- 85
2020-11-14 04:00:00 16.7 5 Nordeste 7 Norte 0 1020.5 -- 84
2020-11-14 03:00:00 16.6 3 Nordeste 5 Norte 0 1020.9 -- 83
2020-11-14 02:00:00 16.7 5 Norte 6 Norte 0 1021.2 -- 82
2020-11-14 01:00:00 16.9 4 Norte 5 Norte 0 1021.7 -- 81
2020-11-14 00:00:00 17.3 4 Noroeste 6 Norte 0 1021.7 -- 80
2020-11-13 23:00:00 17.5 2 Norte 5 Nordeste 0 1021.6 -- 78
2020-11-13 22:00:00 17.6 2 Norte 4 Nordeste 0 1021 -- 76
2020-11-13 21:00:00 18.1 2 Nordeste 5 Nordeste 0 1020.6 -- 73
2020-11-13 20:00:00 18.9 3 Oeste 5 Oeste 0 1020.3 -- 70
2020-11-13 19:00:00 19.2 0 Calma 4 Noroeste 0 1019.9 -- 67
2020-11-13 18:00:00 19.7 3 Noroeste 14 Oeste 0 1019.7 -- 66
2020-11-13 17:00:00 20.4 8 Oeste 15 Sudoeste 0 1019.7 -- 68
2020-11-13 16:00:00 21.5 8 Oeste 15 Oeste 0 1019.7 -- 62
2020-11-13 15:00:00 21.4 9 Oeste 15 Sudoeste 0 1020 -- 62
2020-11-13 14:00:00 20.8 9 Sur 15 Sudoeste 0 1020.6 -- 62
2020-11-13 13:00:00 21.3 6 Sur 12 Sudeste 0 1021.1 -- 63
2020-11-13 12:00:00 20.5 5 Sudeste 13 Este 0 1021.3 -- 65
2020-11-13 11:00:00 17 6 Nordeste 9 Este 0 1021.3 -- 86
2020-11-13 10:00:00 14.2 4 Nordeste 9 Norte 0 1020.9 -- 88
2020-11-13 09:00:00 12.8 6 Norte 59 Nordeste 0 1020.1 -- 88
2020-11-13 08:00:00 14.2 3 Norte 8 Noroeste 0 1019.6 -- 87
2020-11-13 07:00:00 14.8 6 Noroeste 10 Noroeste 0 1019.3 -- 87
2020-11-13 06:00:00 15.2 6 Noroeste 13 Noroeste 0 1019.2 -- 86
2020-11-13 05:00:00 15.3 9 Noroeste 13 Oeste 0 1019.1 -- 86
2020-11-13 04:00:00 15 8 Noroeste 9 Noroeste 0 1019.4 -- 85
2020-11-13 03:00:00 15.1 6 Norte 10 Noroeste 0 1019.3 -- 84
2020-11-13 02:00:00 15.1 6 Noroeste 17 Nordeste 0 1019.9 -- 82
2020-11-13 01:00:00 16.5 9 Nordeste 25 Este 0 1020.3 -- 80
2020-11-13 00:00:00 18 15 Este 40 Sudeste 0 1020 -- 78
2020-11-12 23:00:00 18.3 23 Este 43 Este 0 1019.7 -- 77
2020-11-12 22:00:00 18.4 24 Este 45 Este 0 1019.4 -- 77
2020-11-12 21:00:00 18.5 20 Este 35 Este 0 1019.4 -- 76
2020-11-12 20:00:00 18.6 19 Este 35 Este 0 1019.4 -- 76
2020-11-12 19:00:00 18.7 16 Este 31 Este 0 1019.2 -- 76
2020-11-12 18:00:00 19.7 17 Sudeste 31 Este 0 1019 -- 73
2020-11-12 17:00:00 20.3 15 Este 24 Este 0 1018.9 -- 70
2020-11-12 16:00:00 21.1 14 Este 26 Este 0 1019 -- 68
2020-11-12 15:00:00 20.9 13 Sudeste 23 Sudeste 0 1019.5 -- 67
2020-11-12 14:00:00 21.4 15 Este 31 Este 0 1020.3 -- 62
2020-11-12 13:00:00 21.4 18 Este 33 Sudeste 0 1021.3 -- 53
2020-11-12 12:00:00 21.2 14 Este 26 Este 0 1022.1 -- 50
2020-11-12 11:00:00 20.2 15 Este 27 Este 0 1022 -- 51
2020-11-12 10:00:00 17.8 8 Nordeste 18 Nordeste 0 1022 -- 64
2020-11-12 09:00:00 11 6 Noroeste 12 Noroeste 0 1021.2 -- 75
2020-11-12 08:00:00 10.8 9 Norte 13 Norte 0 1020.7 -- 76
2020-11-12 07:00:00 11.9 10 Norte 22 Este 0 1020.8 -- 76
2020-11-12 06:00:00 13.1 8 Nordeste 17 Nordeste 0 1021.1 -- 76
2020-11-12 05:00:00 13.9 8 Nordeste 27 Este 0 1021.2 -- 72
2020-11-12 04:00:00 17.1 14 Este 28 Este 0 1021.6 -- 71
2020-11-12 03:00:00 17.1 13 Este 27 Este 0 1022 -- 74
2020-11-12 02:00:00 17.2 17 Este 29 Este 0 1022.7 -- 77
2020-11-12 01:00:00 15.5 12 Este 21 Este 0 1023.2 -- 80
2020-11-12 00:00:00 13.9 10 Nordeste 14 Este 0 1023.3 -- 78
2020-11-11 23:00:00 15.8 10 Este 24 Este 0 1023.1 -- 74
2020-11-11 22:00:00 17.2 16 Este 35 Este 0 1022.2 -- 74
2020-11-11 21:00:00 17.9 22 Este 40 Este 0 1022.4 -- 77
2020-11-11 20:00:00 18.3 24 Este 38 Este 0 1022.3 -- 74
2020-11-11 19:00:00 18.7 21 Este 33 Este 0 1021.9 -- 73
2020-11-11 18:00:00 19.9 17 Este 33 Este 0 1021.7 -- 70
2020-11-11 17:00:00 20.8 23 Este 41 Sudeste 0 1022 -- 67
2020-11-11 16:00:00 20.9 22 Sudeste 38 Sudeste 0 1021.8 -- 66
2020-11-11 15:00:00 21.2 22 Sudeste 42 Sudeste 0 1022.1 -- 64
2020-11-11 14:00:00 21.6 22 Sudeste 40 Este 0 1022.8 -- 63
2020-11-11 13:00:00 22.3 20 Este 33 Este 0 1023.8 -- 57
2020-11-11 12:00:00 21.7 21 Este 40 Este 0 1024.5 -- 54
2020-11-11 11:00:00 20.7 22 Este 41 Este 0 1024.7 -- 57
2020-11-11 10:00:00 19.5 23 Este 40 Este 0 1024.5 -- 61
2020-11-11 09:00:00 17.8 24 Este 36 Este 0 1024.6 -- 68
2020-11-11 08:00:00 17.4 19 Este 31 Este 0 1024.4 -- 71
2020-11-11 07:00:00 17.4 19 Este 33 Este 0 1024.3 -- 72
2020-11-11 06:00:00 17 17 Este 31 Este 0 1024.5 -- 76
2020-11-11 05:00:00 17 18 Este 35 Sudeste 0 1024.5 -- 77
2020-11-11 04:00:00 17.7 23 Este 35 Sudeste 0 1024.8 -- 77
2020-11-11 03:00:00 17.8 21 Sudeste 32 Sudeste 0 1025.4 -- 76
2020-11-11 02:00:00 17.9 19 Sudeste 35 Sudeste 0 1026.1 -- 77
2020-11-11 01:00:00 17.9 23 Sudeste 35 Este 0 1025.9 -- 79
2020-11-11 00:00:00 17.6 16 Este 31 Este 0 1025 -- 80
2020-11-10 23:00:00 17.8 19 Este 35 Este 0 1025.5 -- 81
2020-11-10 22:00:00 17.7 16 Este 30 Este 0 1025 -- 82
2020-11-10 21:00:00 17.3 16 Este 27 Este 0 1025.1 -- 82
2020-11-10 20:00:00 18.2 18 Este 28 Sudeste 0 1024.7 -- 82
2020-11-10 19:00:00 18.3 8 Este 18 Este 0 1024.5 -- 79
2020-11-10 18:00:00 19.3 10 Este 18 Este 0 1024 -- 77
2020-11-10 17:00:00 19.9 10 Sudeste 17 Sudeste 0 1023.8 -- 74
2020-11-10 16:00:00 20.7 8 Sudeste 20 Sudeste 0 1023.5 -- 71
2020-11-10 15:00:00 20.9 12 Sudeste 29 Sur 0 1023.7 -- 69
2020-11-10 14:00:00 21.2 17 Sudeste 26 Sudeste 0 1024 -- 66
2020-11-10 13:00:00 21 7 Este 15 Este 0 1024.6 -- 63
2020-11-10 12:00:00 20 9 Sudoeste 13 Sudoeste 0 1024.9 -- 69
2020-11-10 11:00:00 18 5 Sudeste 14 Sudeste 0 1024.9 -- 87
2020-11-10 10:00:00 16.8 3 Sudeste 7 Norte 0 1024.7 -- 93
2020-11-10 09:00:00 12.5 5 Norte 7 Nordeste 0 1023.9 -- 92
2020-11-10 08:00:00 12.5 5 Nordeste 9 Nordeste 0 1023.4 -- 92
2020-11-10 07:00:00 13 7 Nordeste 11 Nordeste 0 1023.2 -- 92
2020-11-10 06:00:00 13.5 7 Nordeste 12 Nordeste 0 1022.8 -- 91
2020-11-10 05:00:00 14 9 Norte 11 Norte 0 1022.6 -- 91
2020-11-10 04:00:00 14.1 6 Norte 7 Nordeste 0 1022.8 -- 90
2020-11-10 03:00:00 13 6 Norte 7 Norte 0 1022.8 -- 90
2020-11-10 02:00:00 13.1 6 Norte 9 Noroeste 0 1022.7 -- 89
2020-11-10 01:00:00 13.7 5 Noroeste 9 Noroeste 0 1023 -- 88
2020-11-10 00:00:00 14.4 7 Noroeste 9 Noroeste 0 1023.3 -- 87
2020-11-09 23:00:00 15.2 6 Norte 16 Oeste 0 1023.4 -- 86
2020-11-09 22:00:00 16.4 9 Oeste 13 Oeste 0 1023.3 -- 85
2020-11-09 21:00:00 16.5 6 Noroeste 16 Oeste 0 1022.9 -- 83
2020-11-09 20:00:00 17.8 10 Oeste 18 Sudoeste 0 1022.7 -- 80
2020-11-09 19:00:00 17.7 8 Oeste 14 Oeste 0 1022.1 -- 74
2020-11-09 18:00:00 19.1 8 Oeste 17 Sudoeste 0 1021.9 -- 70
2020-11-09 17:00:00 20.3 9 Oeste 18 Sudoeste 0 1021.8 -- 67
2020-11-09 16:00:00 20.3 10 Sudoeste 21 Sudoeste 0 1021.6 -- 69
2020-11-09 15:00:00 20.3 8 Oeste 15 Noroeste 0 1021.8 -- 70
2020-11-09 14:00:00 19.6 6 Sudoeste 15 Oeste 0 1022.2 -- 71
2020-11-09 13:00:00 19.2 8 Sudoeste 14 Oeste 0 1022.9 -- 73
2020-11-09 12:00:00 18.4 8 Oeste 14 Oeste 0 1023.2 -- 85
2020-11-09 11:00:00 17.1 5 Oeste 10 Noroeste 0 1023 -- 91
2020-11-09 10:00:00 15.7 3 Noroeste 6 Noroeste 0 1022.6 -- 93
2020-11-09 09:00:00 12 5 Noroeste 9 Norte 0 1022.1 -- 92
2020-11-09 08:00:00 11.3 6 Norte 9 Norte 0 1021.5 -- 92
2020-11-09 07:00:00 12 7 Norte 10 Norte 0 1021.3 -- 92
2020-11-09 06:00:00 12.5 6 Norte 9 Norte 0 1021.2 -- 91
2020-11-09 05:00:00 12.4 6 Norte 9 Norte 0 1021.3 -- 91
2020-11-09 04:00:00 12.6 6 Norte 8 Norte 0 1021.6 -- 90
2020-11-09 03:00:00 12.7 5 Norte 8 Norte 0 1021.8 -- 90
2020-11-09 02:00:00 13.4 6 Norte 11 Norte 0 1021.9 -- 89
2020-11-09 01:00:00 13.5 7 Norte 9 Norte 0 1022.1 -- 88
2020-11-09 00:00:00 13.5 8 Norte 9 Norte 0 1022.1 -- 87
2020-11-08 23:00:00 13.4 6 Norte 8 Norte 0 1022.2 -- 85
2020-11-08 22:00:00 14.4 4 Norte 8 Norte 0 1021.8 -- 84
2020-11-08 21:00:00 14.7 5 Norte 5 Norte 0 1021.5 -- 81
2020-11-08 20:00:00 16 -- -- -- -- 0 1021.5 -- 78
2020-11-08 19:00:00 18.1 0 Calma 6 Sur 0 1021.4 -- 75
2020-11-08 18:00:00 19.6 4 Sur 8 Sur 0 1021.2 -- 73
2020-11-08 17:00:00 20.4 6 Sudeste 15 Sudeste 0 1021.2 -- 69
2020-11-08 16:00:00 20.6 7 Sudeste 14 Sudeste 0 1021.3 -- 66
2020-11-08 15:00:00 20.8 6 Sur 12 Sur 0 1021.7 -- 66
2020-11-08 14:00:00 20.3 6 Sur 14 Sudeste 0 1022.2 -- 66
2020-11-08 13:00:00 20 9 Sur 13 Sur 0 1023 -- 64
2020-11-08 12:00:00 20 6 Sur 10 Sur 0 1023.4 -- 65
2020-11-08 11:00:00 16.6 6 Norte 14 Norte 0 1023.3 -- 89
2020-11-08 10:00:00 15.5 4 Noroeste 7 Noroeste 0 1023.4 -- 91
2020-11-08 09:00:00 11.3 4 Nordeste 9 Norte 0 1022.8 -- 91
2020-11-08 08:00:00 10.7 5 Norte 7 Norte 0 1022.4 -- 91
2020-11-08 07:00:00 11.6 3 Nordeste 14 Nordeste 0 1022.2 -- 90
2020-11-08 06:00:00 13.1 5 Nordeste 16 Norte 0 1022.4 -- 90
2020-11-08 05:00:00 12.1 11 Norte 13 Nordeste 0 1022.6 -- 89
2020-11-08 04:00:00 12.9 8 Nordeste 10 Nordeste 0 1023 -- 89
2020-11-08 03:00:00 13.6 9 Norte 13 Noroeste 0 1023.1 -- 88
2020-11-08 02:00:00 16.2 7 Noroeste 22 Sudoeste 0 1023.3 -- 87
2020-11-08 01:00:00 14.4 5 Oeste 22 Sur 0 1023.5 -- 86
2020-11-08 00:00:00 14.5 3 Noroeste 15 Noroeste 0 1023.3 -- 86
2020-11-07 23:00:00 16.2 8 Oeste 17 Oeste 0 1023.2 -- 86
2020-11-07 22:00:00 16.1 9 Oeste 21 Norte 0 1023 -- 83
2020-11-07 21:00:00 17.5 9 Oeste 27 Oeste 0 1022.1 -- 83
2020-11-07 20:00:00 17.9 19 Oeste 27 Oeste 0 1022.1 -- 82
2020-11-07 19:00:00 17.9 9 Noroeste 35 Oeste 0 1021.8 -- 78
2020-11-07 18:00:00 19.4 19 Oeste 42 Oeste 0 1021.3 -- 74
2020-11-07 17:00:00 20.6 24 Oeste 40 Oeste 0 1021.2 -- 68
2020-11-07 16:00:00 21.2 18 Sudoeste 41 Sudoeste 0 1021 -- 67
2020-11-07 15:00:00 20.7 24 Sudoeste 40 Sudoeste 0 1020.8 -- 70
2020-11-07 14:00:00 21.2 19 Sudoeste 41 Sudoeste 0 1021.1 -- 69
2020-11-07 13:00:00 20.5 19 Sudoeste 40 Sudoeste 0 1021.4 -- 72
2020-11-07 12:00:00 20.3 25 Sudoeste 40 Sudoeste 0 1021.2 -- 73
2020-11-07 11:00:00 19.6 25 Oeste 39 Oeste 0 1020.8 -- 76
2020-11-07 10:00:00 18.4 12 Oeste 28 Sudoeste 0 1020 -- 84
2020-11-07 09:00:00 17.1 12 Sudoeste 19 Sudoeste 0 1019 -- 86
2020-11-07 08:00:00 16.7 10 Oeste 18 Sudoeste 0 1017.8 -- 86
2020-11-07 07:00:00 16.9 12 Sudoeste 17 Sudoeste 0 1017.1 -- 86
2020-11-07 06:00:00 16.6 7 Sudoeste 20 Noroeste 0 1016.2 -- 85
2020-11-07 05:00:00 16.5 12 Oeste 45 Noroeste 0 1016.7 -- 82
2020-11-07 04:00:00 17.3 35 Oeste 72 Noroeste 0 1016.8 -- 75
2020-11-07 03:00:00 21.5 43 Oeste 88 Noroeste 0 1015.6 -- 46
2020-11-07 02:00:00 20 32 Oeste 58 Oeste 0 1013.5 -- 64
2020-11-07 01:00:00 20.5 25 Oeste 40 Oeste 0 1013.1 -- 63
2020-11-07 00:00:00 20.7 10 Sur 41 Sudoeste 0 1012.7 -- 66
2020-11-06 23:00:00 22.5 10 Este 36 Este 0 1011.7 -- 49
2020-11-06 22:00:00 23.4 23 Este 39 Nordeste 0 1010.5 -- 47
2020-11-06 21:00:00 24.3 27 Este 45 Este 0 1010.4 -- 40
2020-11-06 20:00:00 24.5 25 Este 36 Este 0 1010.4 -- 38
2020-11-06 19:00:00 25.2 24 Este 37 Este 0 1010.5 -- 32
2020-11-06 18:00:00 25.2 15 Nordeste 37 Nordeste 0 1010.8 -- 36
2020-11-06 17:00:00 25.3 26 Este 48 Este 0 1010.9 -- 34
2020-11-06 16:00:00 25.6 33 Este 52 Este 0 1011.9 -- 38
2020-11-06 15:00:00 25.8 33 Este 56 Este 0 1012.6 -- 40
2020-11-06 14:00:00 25.2 30 Este 55 Este 0 1013.4 -- 45
2020-11-06 13:00:00 25.1 23 Este 53 Este 0 1014.5 -- 45
2020-11-06 12:00:00 26.5 35 Este 55 Este 0 1014.5 -- 34
2020-11-06 11:00:00 24.2 26 Este 45 Nordeste 0 1015.1 1.4 43
2020-11-06 10:00:00 22.7 20 Este 43 Este 0 1014.9 -- 51
2020-11-06 09:00:00 23.2 27 Este 46 Nordeste 0 1014.1 -- 39
2020-11-06 08:00:00 22.3 26 Este 40 Este 0 1013.7 -- 43
2020-11-06 07:00:00 21.2 27 Este 43 Este 0 1013.8 -- 53
2020-11-06 06:00:00 23.2 24 Este 49 Sudeste 0 1013.5 -- 39
2020-11-06 05:00:00 23.1 30 Nordeste 46 Nordeste 0 1013.5 -- 39
2020-11-06 04:00:00 20.4 22 Este 39 Este 0 1014 -- 58
2020-11-06 03:00:00 21.3 23 Este 41 Este 0 1013.6 -- 51
2020-11-06 02:00:00 21.4 21 Este 31 Este 0 1013.7 -- 48
2020-11-06 01:00:00 21.3 18 Este 27 Nordeste 0 1014.2 -- 42
2020-11-06 00:00:00 21.3 19 Este 35 Nordeste 0 1014.6 -- 45
2020-11-05 23:00:00 21.9 24 Nordeste 39 Nordeste 0 1015.1 -- 42
2020-11-05 22:00:00 21.2 18 Nordeste 34 Nordeste 0 1015.6 -- 46
2020-11-05 21:00:00 21.2 18 Nordeste 36 Nordeste 0 1015.2 -- 50
2020-11-05 20:00:00 21.8 22 Nordeste 34 Este 0 1015.2 -- 47
2020-11-05 19:00:00 21.8 21 Nordeste 39 Este 0 1014.2 -- 46
2020-11-05 18:00:00 22.3 20 Este 36 Nordeste 0 1014 -- 49
2020-11-05 17:00:00 24.8 21 Este 36 Este 0 1013.7 -- 38
2020-11-05 16:00:00 24.7 19 Este 49 Nordeste 0 1013 -- 39
2020-11-05 15:00:00 21.7 29 Nordeste 48 Nordeste 0 1013.7 -- 60
2020-11-05 14:00:00 20.4 29 Nordeste 52 Este 0 1014.9 -- 71
2020-11-05 13:00:00 20.5 33 Este 56 Este 0 1016 -- 72
2020-11-05 12:00:00 21.8 29 Este 63 Este 0 1015.4 -- 62
2020-11-05 11:00:00 19.8 30 Este 54 Este 0 1016.2 -- 78
2020-11-05 10:00:00 18.6 34 Este 53 Este 0 1015.7 -- 83
2020-11-05 09:00:00 19.1 28 Este 49 Este 0 1015.3 -- 79
2020-11-05 08:00:00 19.2 30 Este 69 Nordeste 0 1013.7 -- 77
2020-11-05 07:00:00 19.6 32 Este 57 Este 0 1013.5 -- 73
2020-11-05 06:00:00 19.2 30 Este 55 Nordeste 0 1012.8 -- 75
2020-11-05 05:00:00 19.7 28 Este 59 Este 0 1013.8 -- 70
2020-11-05 04:00:00 19.3 37 Este 63 Nordeste 0 1013.6 -- 71
2020-11-05 03:00:00 18.9 33 Este 55 Este 0 1013.4 -- 74
2020-11-05 02:00:00 19 26 Este 57 Este 0 1013.8 -- 74
2020-11-05 01:00:00 18.8 33 Este 60 Este 0 1013.9 -- 76
2020-11-05 00:00:00 18.8 34 Este 54 Este 0 1014.3 -- 76
2020-11-04 23:00:00 18.7 34 Este 54 Este 0 1014.9 -- 79
2020-11-04 22:00:00 18.7 27 Este 43 Este 0 1015 -- 80
2020-11-04 21:00:00 18.7 26 Este 45 Este 0 1014.6 -- 80
2020-11-04 20:00:00 18.5 24 Este 39 Este 0 1013.8 -- 80
2020-11-04 19:00:00 18.2 17 Este 28 Este 0 1013.7 -- 80
2020-11-04 18:00:00 19.1 20 Este 32 Este 0 1013.9 -- 79
2020-11-04 17:00:00 19.3 22 Sudeste 37 Sudeste 0 1014 -- 75
2020-11-04 16:00:00 19.8 20 Sudeste 34 Este 0 1014.4 -- 72
2020-11-04 15:00:00 21 15 Sudeste 30 Este 0 1015 -- 66
2020-11-04 14:00:00 22.4 19 Este 40 Este 0 1015.7 -- 54
2020-11-04 13:00:00 21.2 22 Este 35 Este 0 1016.7 -- 58
2020-11-04 12:00:00 20.6 12 Este 23 Este 0 1017.7 -- 65
2020-11-04 11:00:00 18.1 9 Este 14 Este 0 1018.3 -0.5 86
2020-11-04 10:00:00 15.5 8 Norte 76 Noroeste 0 1018.8 -- 91
2020-11-04 09:00:00 13.1 8 Norte 10 Norte 0 1018.9 -- 92
2020-11-04 08:00:00 11.7 8 Norte 12 Noroeste 0 1018.8 -- 92
2020-11-04 07:00:00 11.9 7 Noroeste 12 Noroeste 0 1019 -- 91
2020-11-04 06:00:00 11.5 9 Norte 11 Noroeste 0 1019.4 -- 91
2020-11-04 05:00:00 11.1 6 Noroeste 9 Noroeste 0 1019.6 -- 91
2020-11-04 04:00:00 11.9 5 Noroeste 9 Norte 0 1020.3 -- 91
2020-11-04 03:00:00 11.6 7 Norte 10 Norte 0 1021 -- 90
2020-11-04 02:00:00 11.9 7 Norte 9 Norte 0 1021.8 -- 90
2020-11-04 01:00:00 12.5 8 Norte 10 Norte 0 1022.6 -- 89
2020-11-04 00:00:00 12.8 7 Norte 9 Norte 0 1023.2 -- 88
2020-11-03 23:00:00 13.4 5 Norte 12 Norte 0 1023.6 -- 87
2020-11-03 22:00:00 13.8 8 Norte 13 Noroeste 0 1023.2 -- 86
2020-11-03 21:00:00 13.4 8 Norte 10 Noroeste 0 1022.7 -- 83
2020-11-03 20:00:00 14.5 4 Norte 6 Nordeste 0 1022 -- 81
2020-11-03 19:00:00 16.4 5 Este 17 Este 0 1022.1 -- 80
2020-11-03 18:00:00 17.6 11 Este 19 Sudeste 0.2 1021.8 -- 76
2020-11-03 17:00:00 18.8 11 Este 16 Sudeste 0 1021.8 -- 71
2020-11-03 16:00:00 18.8 6 Sudeste 15 Sudeste 0 1022 -- 73
2020-11-03 15:00:00 18.8 10 Sudeste 19 Sudeste 0 1022.4 -- 73
2020-11-03 14:00:00 18.5 10 Sudoeste 17 Sudoeste 0 1022.8 -- 76
2020-11-03 13:00:00 18 10 Sudoeste 17 Sudoeste 0 1023.2 -- 85
2020-11-03 12:00:00 16.9 9 Sudoeste 15 Sudoeste 0 1023.4 -- 90
2020-11-03 11:00:00 16.2 5 Oeste 16 Oeste 0 1023.5 -- 93
2020-11-03 10:00:00 15.4 3 Norte 7 Norte 0 1023.3 -- 94
2020-11-03 09:00:00 13.7 4 Nordeste 8 Nordeste 0 1022.7 -- 94
2020-11-03 08:00:00 11.9 6 Nordeste 17 Nordeste 0 1022.2 -- 93
2020-11-03 07:00:00 11.6 7 Nordeste 17 Nordeste 0 1021.7 -- 93
2020-11-03 06:00:00 13.2 5 Norte 12 Norte 0 1021.7 -- 92
2020-11-03 05:00:00 14.4 8 Noroeste 15 Noroeste 0 1021.6 -- 92
2020-11-03 04:00:00 13.8 9 Noroeste 14 Noroeste 0 1021.7 -- 91
2020-11-03 03:00:00 14.6 7 Noroeste 17 Oeste 0 1021.8 -- 91
2020-11-03 02:00:00 13.9 8 Noroeste 12 Noroeste 0 1022.2 -- 90
2020-11-03 01:00:00 12.8 6 Noroeste 10 Noroeste 0 1022.4 -- 89
2020-11-03 00:00:00 11.3 7 Norte 8 Norte 0 1022.5 -- 88
2020-11-02 23:00:00 12.6 3 Noroeste 11 Noroeste 0 1022.3 -- 87
2020-11-02 22:00:00 12.8 5 Norte 9 Noroeste 0 1022.1 -- 86
2020-11-02 21:00:00 13.3 5 Noroeste 9 Noroeste 0 1022.2 -- 85
2020-11-02 20:00:00 14.2 6 Noroeste 13 Oeste 0 1021.9 -- 84
2020-11-02 19:00:00 15.8 9 Oeste 18 Oeste 0 1021.4 -- 82
2020-11-02 18:00:00 17.2 9 Oeste 16 Oeste 0 1021.3 -- 78
2020-11-02 17:00:00 18.3 10 Sudoeste 17 Oeste 0 1021.5 -- 75
2020-11-02 16:00:00 18.3 10 Sudoeste 20 Sudoeste 0 1021.7 -- 75
2020-11-02 15:00:00 17.8 12 Sudoeste 18 Sudoeste 0 1022 -- 79
2020-11-02 14:00:00 17 10 Sudoeste 18 Sudoeste 0 1022.6 -- 83
2020-11-02 13:00:00 16.6 8 Sur 15 Sur 0 1023.4 -- 88
2020-11-02 12:00:00 16 8 Sudeste 13 Sudeste 0 1023.8 -- 91
2020-11-02 11:00:00 15.2 5 Nordeste 12 Nordeste 0 1024.1 -- 93
2020-11-02 10:00:00 14.9 3 Sudeste 8 Sudeste 0 1023.7 -- 94
2020-11-02 09:00:00 14.5 2 Sudeste 8 Nordeste 0 1023 -- 94
2020-11-02 08:00:00 14.5 3 Nordeste 8 Este 0 1022.3 -- 93
2020-11-02 07:00:00 14.4 0 Calma -- -- -- 1022.1 -- 93
2020-11-02 06:00:00 -- -- -- -- -- -- -- -- --
2020-11-02 05:00:00 15.3 4 Norte 8 Nordeste 0 1022.1 -- 93
2020-11-02 04:00:00 16 3 Noroeste 12 Oeste 0 1022.3 -- 92
2020-11-02 03:00:00 16.3 5 Oeste 14 Oeste 0 1022.5 -- 92
2020-11-02 02:00:00 15.4 4 Noroeste 9 Noroeste 0 1022.7 -- 91
2020-11-02 01:00:00 14.8 3 Noroeste 10 Noroeste 0 1023 -- 90
2020-11-02 00:00:00 12.7 6 Noroeste 9 Noroeste 0 1023.1 -- 90
2020-11-01 23:00:00 13.4 4 Noroeste 9 Noroeste 0 1023.1 -- 89
2020-11-01 22:00:00 13.7 6 Noroeste 11 Noroeste 0 1022.9 -- 88
2020-11-01 21:00:00 14.8 8 Noroeste 13 Oeste 0 1023 -- 87
2020-11-01 20:00:00 16.5 10 Oeste 15 Oeste 0 1022.5 -- 85
2020-11-01 19:00:00 17.5 8 Oeste 16 Oeste 0 1022.5 -- 82
2020-11-01 18:00:00 18.7 9 Oeste 18 Sudoeste 0 1022.5 -- 79
2020-11-01 17:00:00 19.2 9 Oeste 17 Sudoeste 0 1022.6 -- 80
2020-11-01 16:00:00 17.8 10 Oeste 21 Sudoeste 0 1023 -- 84
2020-11-01 15:00:00 17.7 11 Oeste 22 Oeste 0 1023.5 -- 84
2020-11-01 14:00:00 17.9 11 Oeste 20 Sudoeste 0 1024.2 -- 82
2020-11-01 13:00:00 18.5 13 Sudoeste 19 Sudoeste 0 1024.7 -- 83
2020-11-01 12:00:00 18.1 10 Sudoeste 15 Sudoeste 0 1025 -- 88
2020-11-01 11:00:00 17.5 5 Sur 10 Sur 0 1025 -- 90
2020-11-01 10:00:00 16.4 2 Nordeste 8 Norte 0 1024.7 -- 92
2020-11-01 09:00:00 12.3 6 Norte 49 Noroeste 0 1024.2 -- 92
2020-11-01 08:00:00 11.1 7 Norte 9 Norte 0 1023.7 -- 90
2020-11-01 07:00:00 11.4 4 Norte 8 Nordeste 0 1023.7 -- 90
2020-11-01 06:00:00 11.4 6 Norte 8 Norte 0 1023.7 -- 89
2020-11-01 05:00:00 11.2 7 Norte 9 Norte 0 1023.4 -- 88
2020-11-01 04:00:00 10.6 8 Norte 10 Norte 0 1023.8 -- 88
2020-11-01 03:00:00 11.9 3 Norte 6 Noroeste 0 1024 -- 88
2020-11-01 02:00:00 12.2 6 Norte 12 Noroeste 0 1024.4 -- 86
2020-11-01 01:00:00 12.2 6 Norte 10 Noroeste 0 1024.8 -- 85
2020-11-01 00:00:00 12.4 7 Norte 9 Noroeste 0 1024.7 -- 83
2020-10-31 23:00:00 13.6 5 Noroeste 12 Noroeste 0 1024.4 -- 82
2020-10-31 22:00:00 14.3 8 Noroeste 11 Noroeste 0 1024.2 -- 80
2020-10-31 21:00:00 15.1 9 Noroeste 13 Noroeste 0 1023.6 -- 76
2020-10-31 20:00:00 16.6 8 Noroeste 12 Oeste 0 1023.7 -- 73
2020-10-31 19:00:00 18.7 6 Oeste 17 Oeste 0 1023.3 -- 68
2020-10-31 18:00:00 20.4 8 Oeste 19 Oeste 0 1023.6 -- 66
2020-10-31 17:00:00 21.9 8 Oeste 14 Oeste 0 1023.7 -- 57
2020-10-31 16:00:00 22.1 7 Oeste 13 Sudoeste 0 1023.6 -- 54
2020-10-31 15:00:00 22 7 Sudoeste 14 Sudoeste 0 1023.8 -- 52
2020-10-31 14:00:00 22.4 7 Oeste 17 Oeste 0 1024.7 -- 52
2020-10-31 13:00:00 22.6 8 Oeste 15 Oeste 0 1025.3 -- 53
2020-10-31 12:00:00 21.8 7 Oeste 14 Oeste 0 1025.5 -- 54
2020-10-31 11:00:00 19.9 8 Oeste 16 Oeste 0 1025.3 -- 71
2020-10-31 10:00:00 17.8 9 Oeste 14 Oeste 0 1025.4 -- 86
2020-10-31 09:00:00 15.4 9 Sudoeste 13 Sudoeste 0 1024.5 -- 85
2020-10-31 08:00:00 13.2 5 Noroeste 10 Nordeste 0 1023.7 -- 85
2020-10-31 07:00:00 13.1 8 Norte 13 Nordeste 0 1023.5 -- 88
2020-10-31 06:00:00 12.8 10 Norte 17 Nordeste 0 1023.3 -- 89
2020-10-31 05:00:00 13.3 10 Nordeste 13 Nordeste 0 1023.4 -- 90
2020-10-31 04:00:00 13.7 9 Norte 12 Norte 0 1023.8 -- 90
2020-10-31 03:00:00 14.7 9 Norte 13 Noroeste 0 1024.1 -- 90
2020-10-31 02:00:00 14.2 8 Noroeste 13 Noroeste 0 1024.5 -- 89
2020-10-31 01:00:00 13.4 10 Noroeste 14 Noroeste 0 1024.7 -- 88
2020-10-31 00:00:00 13.5 5 Norte 10 Noroeste 0 1024.7 -- 88
2020-10-30 23:00:00 14 6 Norte 10 Norte 0 1024.6 -- 86
2020-10-30 22:00:00 14.5 8 Noroeste 13 Noroeste 0 1024.5 -- 85
2020-10-30 21:00:00 15.2 9 Noroeste 14 Noroeste 0 1024.1 -- 83
2020-10-30 20:00:00 17.5 9 Nordeste 15 Este 0 1023.7 -- 81
2020-10-30 19:00:00 18.6 6 Este 14 Este 0 1023.5 -- 74
2020-10-30 18:00:00 20.3 5 Sudeste 14 Este 0 1023.4 -- 67
2020-10-30 17:00:00 21.2 6 Sudeste 16 Este 0 1023.6 -- 61
2020-10-30 16:00:00 21.9 13 Este 26 Este 0 1023.4 -- 51
2020-10-30 15:00:00 22.1 13 Este 22 Este 0 1023.9 -- 52
2020-10-30 14:00:00 21.8 6 Este 17 Sudeste 0 1024.7 -- 55
2020-10-30 13:00:00 21.7 8 Sudeste 26 Sudeste 0 1025 -- 60
2020-10-30 12:00:00 21.1 13 Sudeste 24 Este 0 1025.1 -- 64
2020-10-30 11:00:00 21 13 Este 23 Este 0 1025.3 -- 59
2020-10-30 10:00:00 18.9 11 Nordeste -- -- -- 1025.2 -- 70
2020-10-30 09:00:00 -- -- -- -- -- -- -- -- --
2020-10-30 08:00:00 -- -- -- -- -- -- -- -- --
2020-10-30 07:00:00 15.4 12 Nordeste 23 Este 0 1023.9 -- 82
2020-10-30 06:00:00 16.4 14 Este 22 Este 0 1024 -- 82
2020-10-30 05:00:00 16.1 14 Este 23 Este 0 1024.2 -- 81
2020-10-30 04:00:00 16 15 Este 22 Este 0 1024.5 -- 81
2020-10-30 03:00:00 16.4 14 Nordeste 21 Este 0 1024.8 -- 80
2020-10-30 02:00:00 16.5 13 Este 27 Este 0 1024.9 -- 82
2020-10-30 01:00:00 16.6 9 Este 31 Este 0 1025.2 -- 79
2020-10-30 00:00:00 16.3 10 Este 21 Este 0 1025.3 -- 82
2020-10-29 23:00:00 15.9 15 Este 21 Este 0 1025.3 -- 85
2020-10-29 22:00:00 15.3 9 Nordeste 14 Este 0 1025.3 -- 86
2020-10-29 21:00:00 16.7 9 Este 15 Este 0 1024.9 -- 85
2020-10-29 20:00:00 17.4 10 Este 19 Este 0 1024.6 -- 82
2020-10-29 19:00:00 18.2 7 Este 23 Este 0 1023.9 -- 77
2020-10-29 18:00:00 19.5 10 Este 23 Este 0 1023.9 -- 72
2020-10-29 17:00:00 20.6 11 Este 18 Este 0 1024.2 -- 68
2020-10-29 16:00:00 21.1 9 Este 17 Este 0 1024.3 -- 68
2020-10-29 15:00:00 21.2 9 Sudeste 15 Sudeste 0 1024.8 -- 65
2020-10-29 14:00:00 20.6 7 Sudeste 14 Sudeste 0 1025.5 -- 66
2020-10-29 13:00:00 20.5 7 Sudeste 15 Sudeste 0 1026.1 -- 69
2020-10-29 12:00:00 20.2 5 Sudeste 15 Este 0 1026.1 -- 63
2020-10-29 11:00:00 17.7 10 Este 17 Este 0 1025.9 -- 83
2020-10-29 10:00:00 16.2 4 Este 9 Nordeste 0 1025.6 -- 92
2020-10-29 09:00:00 11.9 7 Norte 11 Nordeste 0 1024.9 -- 92
2020-10-29 08:00:00 9.8 6 Nordeste 10 Nordeste 0 1024.2 -- 91
2020-10-29 07:00:00 9.6 4 Nordeste 8 Nordeste 0 1023.9 -- 91
2020-10-29 06:00:00 9.5 7 Nordeste 10 Norte 0 1023.4 -- 90
2020-10-29 05:00:00 9.4 7 Norte 8 Norte 0 1023.2 -- 90
2020-10-29 04:00:00 9.2 5 Norte 8 Norte 0 1023.2 -- 89
2020-10-29 03:00:00 10.2 4 Norte 7 Nordeste 0 1023.3 -- 89
2020-10-29 02:00:00 10.5 7 Norte 9 Norte 0 1023.4 -- 88
2020-10-29 01:00:00 10.2 7 Norte 8 Norte 0 1023.6 -- 87
2020-10-29 00:00:00 11.7 3 Norte 8 Norte 0 1023.5 -- 86
2020-10-28 23:00:00 11.3 6 Norte 8 Norte 0 1023.4 -- 85
2020-10-28 22:00:00 12.7 3 Noroeste 5 Norte 0 1022.9 -- 83
2020-10-28 21:00:00 13.1 0 Calma 8 Norte 0 1022.5 -- 81
2020-10-28 20:00:00 15 6 Oeste 9 Oeste 0 1022 -- 80
2020-10-28 19:00:00 17.2 5 Oeste 12 Oeste 0 1021.5 -- 78
2020-10-28 18:00:00 18.5 7 Oeste 19 Sudoeste 0 1021.4 -- 76
2020-10-28 17:00:00 19.3 10 Sudoeste 18 Sudoeste 0 1021.2 -- 75
2020-10-28 16:00:00 19.1 12 Sudoeste 17 Sudoeste 0 1021.2 -- 76
2020-10-28 15:00:00 19.8 7 Sur 15 Sudeste 0 1021.3 -- 72
2020-10-28 14:00:00 19.7 6 Sudeste 14 Sudeste 0 1021.9 -- 67
2020-10-28 13:00:00 19.3 8 Sudeste 15 Este 0 1022.5 -- 62
2020-10-28 12:00:00 18.7 9 Sudeste 18 Este 0 1022.7 -- 60
2020-10-28 11:00:00 17.9 12 Este 19 Este 0 1022.4 -- 71
2020-10-28 10:00:00 15 10 Este 16 Este 0 1021.9 -- 89
2020-10-28 09:00:00 11.9 6 Nordeste 11 Nordeste 0 1021.1 -- 90
2020-10-28 08:00:00 8.2 9 Nordeste 10 Nordeste 0 1020 -- 89
2020-10-28 07:00:00 8.1 8 Norte 9 Norte 0 1019.5 -- 88
2020-10-28 06:00:00 8.4 6 Nordeste 8 Norte 0 1019.3 -- 89
2020-10-28 05:00:00 9 5 Norte 8 Norte 0 1019 -- 88
2020-10-28 04:00:00 9.4 6 Norte 8 Norte 0 1019.2 -- 87
2020-10-28 03:00:00 10.1 5 Norte 10 Norte 0 1019.7 -- 87
2020-10-28 02:00:00 10.8 6 Norte 9 Norte 0 1019.7 -- 85
2020-10-28 01:00:00 10.6 8 Norte 10 Norte 0 1020.1 -- 84
2020-10-28 00:00:00 12.3 3 Norte 11 Oeste 0 1020.4 -- 82
2020-10-27 23:00:00 13.9 4 Oeste 15 Oeste 0 1020.3 -- 81
2020-10-27 22:00:00 15.8 9 Oeste 19 Oeste 0 1019.9 -- 80
2020-10-27 21:00:00 15.4 10 Oeste 19 Oeste 0 1019.4 -- 77
2020-10-27 20:00:00 15.7 13 Oeste 23 Oeste 0 1019.4 -- 72
2020-10-27 19:00:00 16.4 17 Oeste 28 Oeste 0 1018.8 -- 66
2020-10-27 18:00:00 17.4 20 Oeste 31 Oeste 0 1018.9 -- 63
2020-10-27 17:00:00 18.7 19 Oeste 30 Oeste 0 1019.1 -- 59
2020-10-27 16:00:00 19.4 14 Oeste 27 Oeste 0 1019.2 -- 57
2020-10-27 15:00:00 19.8 13 Oeste 24 Oeste 0 1019.5 -- 58
2020-10-27 14:00:00 19.8 10 Oeste 19 Sudoeste 0 1020.1 -- 53
2020-10-27 13:00:00 18.8 9 Sudoeste 15 Sudoeste 0 1021 -- 57
2020-10-27 12:00:00 19.9 9 Este 18 Este 0 1021.2 -- 50
2020-10-27 11:00:00 19.4 10 Este 19 Nordeste 0 1020.8 -- 53
2020-10-27 10:00:00 17.2 12 Nordeste 19 Nordeste 0 1020.6 -- 62
2020-10-27 09:00:00 10.4 7 Nordeste 13 Nordeste 0 1020.2 -- 85
2020-10-27 08:00:00 7.8 8 Norte 11 Norte 0 1020 -- 85
2020-10-27 07:00:00 8.3 8 Norte 11 Norte 0 1019.7 -- 85
2020-10-27 06:00:00 8.9 9 Norte 10 Norte 0 1019.4 -- 85
2020-10-27 05:00:00 9.2 9 Norte 10 Norte 0 1019.3 -- 83
2020-10-27 04:00:00 8.9 7 Nordeste 10 Nordeste 0 1019.4 -- 81
2020-10-27 03:00:00 10 4 Nordeste 12 Nordeste 0 1019.6 -- 82
2020-10-27 02:00:00 9.5 5 Nordeste 12 Norte 0 1019.8 -- 83
2020-10-27 01:00:00 9.8 8 Norte 10 Norte 0 1020.3 -- 83
2020-10-27 00:00:00 10 5 Noroeste 10 Nordeste 0 1020.4 -- 81